Time;durP1;ratioP1;P1;durP2;ratioP2;P2;SDS_P1;SDS_P2;PMS_P1;PMS_P2;Temp;Humidity;BMP_temperature;BMP_pressure;BME280_temperature;BME280_humidity;BME280_pressure;Samples;Min_cycle;Max_cycle;Signal;HPM_P1;HPM_P2
2023/06/13 00:01:30;;;;;;;7.77;6.33;;;14.80;53.50;;;;;;5011477;28;20183;-57
2023/06/13 00:03:56;;;;;;;7.23;5.87;;;14.80;53.50;;;;;;5015827;28;20278;-57
2023/06/13 00:06:22;;;;;;;11.53;5.90;;;14.70;53.50;;;;;;5015161;28;20506;-56
2023/06/13 00:08:48;;;;;;;10.60;7.43;;;14.70;53.50;;;;;;5019338;28;20465;-57
2023/06/13 00:11:14;;;;;;;9.37;7.10;;;14.70;53.60;;;;;;5024306;28;20180;-57
2023/06/13 00:13:41;;;;;;;8.23;6.03;;;14.70;53.70;;;;;;5021322;28;20461;-57
2023/06/13 00:16:07;;;;;;;9.27;6.13;;;14.70;53.80;;;;;;5023683;28;20184;-57
2023/06/13 00:18:33;;;;;;;8.47;5.60;;;14.60;53.70;;;;;;5018381;28;20528;-57
2023/06/13 00:20:59;;;;;;;10.73;6.80;;;14.60;53.50;;;;;;5023100;28;20180;-57
2023/06/13 00:23:26;;;;;;;9.20;6.77;;;14.60;53.40;;;;;;5022636;28;20196;-57
2023/06/13 00:25:52;;;;;;;9.83;6.77;;;14.60;53.40;;;;;;5025590;28;20426;-56
2023/06/13 00:28:19;;;;;;;10.33;6.90;;;14.60;53.20;;;;;;5023001;28;20464;-56
2023/06/13 00:30:45;;;;;;;8.00;5.50;;;14.60;53.10;;;;;;5020784;28;20423;-56
2023/06/13 00:33:15;;;;;;;8.87;6.13;;;14.70;52.90;;;;;;5021837;28;20538;-54
2023/06/13 00:35:42;;;;;;;8.00;6.07;;;14.60;53.30;;;;;;5022116;28;20426;-56
2023/06/13 00:38:07;;;;;;;9.10;6.40;;;14.60;52.70;;;;;;5021072;28;20431;-57
2023/06/13 00:40:33;;;;;;;7.70;5.87;;;14.60;52.60;;;;;;5022746;28;20720;-58
2023/06/13 00:42:59;;;;;;;9.40;6.20;;;14.60;52.60;;;;;;5016384;28;20172;-56
2023/06/13 00:45:31;;;;;;;9.40;6.57;;;14.60;52.50;;;;;;5020881;28;20180;-57
2023/06/13 00:48:03;;;;;;;12.77;5.83;;;14.60;52.60;;;;;;5013790;28;20192;-55
2023/06/13 00:50:32;;;;;;;6.73;6.00;;;14.60;52.60;;;;;;5021031;28;20513;-56
2023/06/13 00:53:00;;;;;;;16.33;6.13;;;14.60;52.60;;;;;;5019017;28;20435;-56
2023/06/13 00:55:26;;;;;;;7.33;6.07;;;14.60;52.60;;;;;;5019482;28;20430;-56
2023/06/13 00:57:55;;;;;;;7.20;6.10;;;14.60;52.60;;;;;;5015206;28;20431;-57
2023/06/13 01:00:30;;;;;;;6.70;5.20;;;14.60;52.50;;;;;;5023226;28;20755;-57
2023/06/13 01:02:58;;;;;;;7.47;5.77;;;14.60;52.50;;;;;;5023750;28;20464;-57
2023/06/13 01:05:28;;;;;;;9.20;5.40;;;14.50;52.30;;;;;;5027887;28;20451;-57
2023/06/13 01:07:58;;;;;;;7.73;5.50;;;14.50;52.40;;;;;;5024375;28;20458;-57
2023/06/13 01:10:25;;;;;;;7.13;5.57;;;14.50;52.30;;;;;;5025280;28;20896;-57
2023/06/13 01:13:00;;;;;;;6.50;5.17;;;14.50;52.30;;;;;;5024926;28;20439;-58
2023/06/13 01:15:29;;;;;;;8.90;6.10;;;14.50;52.40;;;;;;5023861;28;21120;-56
2023/06/13 01:17:58;;;;;;;9.47;6.70;;;14.50;52.50;;;;;;5027976;28;20434;-56
2023/06/13 01:20:32;;;;;;;8.47;6.53;;;14.50;52.50;;;;;;5021549;28;20430;-58
2023/06/13 01:23:22;;;;;;;15.50;6.40;;;14.50;52.40;;;;;;5017150;28;20982;-57
2023/06/13 01:26:07;;;;;;;13.10;7.40;;;14.50;52.30;;;;;;5021202;28;20517;-56
2023/06/13 01:28:35;;;;;;;9.70;6.20;;;14.50;52.40;;;;;;5021472;28;20451;-56
2023/06/13 01:31:07;;;;;;;9.13;6.13;;;14.60;52.50;;;;;;5022429;28;20426;-55
2023/06/13 01:33:34;;;;;;;10.10;6.03;;;14.60;52.30;;;;;;5022093;28;20461;-58
2023/06/13 01:36:00;;;;;;;7.67;5.17;;;14.60;52.20;;;;;;5022053;28;20799;-56
2023/06/13 01:38:26;;;;;;;9.40;5.67;;;14.60;52.20;;;;;;5022254;28;20531;-56
2023/06/13 01:40:52;;;;;;;6.27;4.93;;;14.60;52.30;;;;;;5023878;28;20200;-57
2023/06/13 01:43:17;;;;;;;5.50;4.93;;;14.70;52.10;;;;;;5017825;28;20911;-56
2023/06/13 01:45:44;;;;;;;10.00;5.90;;;14.70;52.10;;;;;;5025742;28;20187;-56
2023/06/13 01:48:52;;;;;;;7.83;5.13;;;14.70;51.90;;;;;;5018491;28;20684;-56
2023/06/13 01:51:21;;;;;;;6.50;5.03;;;14.70;52.40;;;;;;5020865;28;20438;-55
2023/06/13 01:53:54;;;;;;;7.37;5.50;;;14.70;51.90;;;;;;5022769;28;20464;-56
2023/06/13 01:56:25;;;;;;;7.90;5.97;;;14.70;52.00;;;;;;5028388;28;20423;-58
2023/06/13 01:59:00;;;;;;;10.00;6.20;;;14.70;52.30;;;;;;5027170;28;20458;-56
2023/06/13 02:01:26;;;;;;;6.93;4.97;;;14.60;52.20;;;;;;5026266;28;20529;-56
2023/06/13 02:03:53;;;;;;;9.30;5.37;;;14.60;52.30;;;;;;5026301;28;20450;-57
2023/06/13 02:06:18;;;;;;;7.73;5.53;;;14.60;52.30;;;;;;5024149;28;20556;-56
2023/06/13 02:08:45;;;;;;;5.90;5.00;;;14.60;52.40;;;;;;5028118;28;20688;-57
2023/06/13 02:11:11;;;;;;;10.50;5.80;;;14.50;52.50;;;;;;5024334;28;20184;-56
2023/06/13 02:13:37;;;;;;;5.93;4.90;;;14.50;52.50;;;;;;5019419;28;20451;-56
2023/06/13 02:16:03;;;;;;;6.70;5.50;;;14.50;52.50;;;;;;5023938;28;20498;-55
2023/06/13 02:18:30;;;;;;;8.60;6.13;;;14.60;52.60;;;;;;5022706;28;20449;-56
2023/06/13 02:20:56;;;;;;;8.43;5.57;;;14.60;52.60;;;;;;5022961;28;20830;-58
2023/06/13 02:23:23;;;;;;;14.13;5.33;;;14.50;52.50;;;;;;5028018;28;20467;-58
2023/06/13 02:25:51;;;;;;;10.90;6.63;;;14.50;52.60;;;;;;5023212;28;20430;-56
2023/06/13 02:28:17;;;;;;;9.00;6.10;;;14.50;52.60;;;;;;5025326;28;20459;-58
2023/06/13 02:30:44;;;;;;;9.60;5.83;;;14.60;52.50;;;;;;5024810;28;20580;-56
2023/06/13 02:33:09;;;;;;;11.40;5.80;;;14.60;52.40;;;;;;5021064;28;20510;-56
2023/06/13 02:35:36;;;;;;;6.43;5.70;;;14.60;52.50;;;;;;5026871;28;20435;-57
2023/06/13 02:38:06;;;;;;;10.10;5.93;;;14.60;52.40;;;;;;5025606;28;20215;-57
2023/06/13 02:40:32;;;;;;;9.50;5.13;;;14.60;52.30;;;;;;5019038;28;20545;-57
2023/06/13 02:42:58;;;;;;;13.20;6.33;;;14.60;52.40;;;;;;5022799;28;20514;-55
2023/06/13 02:45:23;;;;;;;11.27;5.60;;;14.60;52.20;;;;;;5026322;28;20195;-55
2023/06/13 02:47:50;;;;;;;15.20;5.70;;;14.60;52.10;;;;;;5025856;28;20184;-56
2023/06/13 02:50:16;;;;;;;9.83;5.03;;;14.50;52.10;;;;;;5023719;28;20175;-57
2023/06/13 02:52:42;;;;;;;7.80;5.60;;;14.50;52.20;;;;;;5023454;28;20453;-57
2023/06/13 02:55:08;;;;;;;9.73;6.33;;;14.50;52.20;;;;;;5028524;28;20553;-57
2023/06/13 02:57:34;;;;;;;10.00;6.30;;;14.40;52.20;;;;;;5022587;28;20276;-55
2023/06/13 03:00:00;;;;;;;11.27;5.70;;;14.40;52.30;;;;;;5023017;28;20426;-56
2023/06/13 03:02:26;;;;;;;7.77;5.80;;;14.40;52.30;;;;;;5021080;28;20430;-56
2023/06/13 03:04:52;;;;;;;13.23;6.07;;;14.40;52.20;;;;;;5028381;28;20204;-56
2023/06/13 03:07:19;;;;;;;10.67;6.53;;;14.40;52.40;;;;;;5022926;28;20485;-56
2023/06/13 03:09:44;;;;;;;11.33;5.47;;;14.40;52.30;;;;;;5019272;28;20214;-58
2023/06/13 03:12:13;;;;;;;9.70;5.47;;;14.40;52.30;;;;;;5019669;28;20431;-58
2023/06/13 03:14:38;;;;;;;7.50;5.63;;;14.40;52.30;;;;;;5027610;28;20195;-57
2023/06/13 03:17:04;;;;;;;12.53;6.00;;;14.40;52.40;;;;;;5023400;28;20509;-58
2023/06/13 03:19:30;;;;;;;7.03;5.37;;;14.40;52.30;;;;;;5023706;28;20175;-57
2023/06/13 03:22:00;;;;;;;11.20;5.20;;;14.30;52.40;;;;;;5022659;28;20438;-56
2023/06/13 03:24:26;;;;;;;14.53;5.70;;;14.30;52.50;;;;;;5026566;28;20652;-58
2023/06/13 03:26:51;;;;;;;10.97;5.40;;;14.30;52.40;;;;;;5022596;28;20439;-56
2023/06/13 03:29:17;;;;;;;7.33;5.10;;;14.30;52.40;;;;;;5027077;28;20282;-53
2023/06/13 03:31:43;;;;;;;7.87;5.60;;;14.30;52.40;;;;;;5019045;28;20238;-57
2023/06/13 03:34:08;;;;;;;9.90;4.87;;;14.20;52.30;;;;;;5019741;28;20291;-57
2023/06/13 03:36:34;;;;;;;12.37;5.73;;;14.20;52.30;;;;;;5021242;28;20608;-55
2023/06/13 03:39:00;;;;;;;8.17;5.60;;;14.30;52.40;;;;;;5023527;28;20216;-56
2023/06/13 03:41:26;;;;;;;11.27;6.13;;;14.30;52.20;;;;;;5026207;28;20206;-58
2023/06/13 03:43:52;;;;;;;9.67;5.33;;;14.30;52.10;;;;;;5018937;28;20460;-56
2023/06/13 03:46:17;;;;;;;8.00;5.10;;;14.30;52.90;;;;;;5016776;28;20184;-56
2023/06/13 03:48:43;;;;;;;9.70;5.37;;;14.20;52.30;;;;;;5024295;28;20454;-56
2023/06/13 03:51:09;;;;;;;7.83;5.43;;;14.20;52.20;;;;;;5023982;28;20187;-56
2023/06/13 03:53:34;;;;;;;8.80;5.60;;;14.20;52.20;;;;;;5015523;28;20716;-55
2023/06/13 03:56:00;;;;;;;8.20;4.73;;;14.20;52.30;;;;;;5015852;28;20182;-57
2023/06/13 03:58:26;;;;;;;7.67;4.50;;;14.20;52.30;;;;;;5023254;28;20210;-55
2023/06/13 04:00:54;;;;;;;16.53;5.17;;;14.20;52.50;;;;;;5015410;28;20425;-58
2023/06/13 04:03:20;;;;;;;5.90;4.90;;;14.20;52.50;;;;;;5014584;28;20208;-56
2023/06/13 04:05:45;;;;;;;5.67;4.83;;;14.20;52.40;;;;;;5016045;28;20426;-56
2023/06/13 04:08:11;;;;;;;5.40;4.50;;;14.20;52.40;;;;;;5015007;28;20196;-56
2023/06/13 04:10:37;;;;;;;9.30;5.83;;;14.20;52.40;;;;;;5016740;28;20744;-59
2023/06/13 04:13:02;;;;;;;7.30;5.00;;;14.30;52.50;;;;;;5020680;28;20258;-55
2023/06/13 04:15:29;;;;;;;10.03;5.00;;;14.30;52.50;;;;;;5005381;28;20282;-57
2023/06/13 04:17:55;;;;;;;7.37;5.67;;;14.30;52.40;;;;;;5017236;28;20673;-56
2023/06/13 04:20:24;;;;;;;7.40;4.97;;;14.30;52.30;;;;;;5015071;28;20550;-59
2023/06/13 04:22:49;;;;;;;9.37;4.47;;;14.30;52.20;;;;;;5016109;28;21084;-57
2023/06/13 04:25:16;;;;;;;8.43;5.33;;;14.40;52.00;;;;;;5016391;28;20446;-57
2023/06/13 04:27:43;;;;;;;8.10;4.80;;;14.40;51.70;;;;;;5017990;28;20179;-59
2023/06/13 04:30:09;;;;;;;7.67;5.43;;;14.50;51.70;;;;;;5019777;28;20422;-56
2023/06/13 04:32:37;;;;;;;16.70;5.10;;;14.50;51.80;;;;;;5015233;28;20429;-58
2023/06/13 04:35:03;;;;;;;7.57;4.10;;;14.50;51.50;;;;;;5011476;28;20442;-58
2023/06/13 04:37:30;;;;;;;8.13;4.60;;;14.50;51.40;;;;;;5020099;28;20538;-58
2023/06/13 04:39:57;;;;;;;8.87;5.17;;;14.60;51.30;;;;;;5017894;28;20967;-58
2023/06/13 04:42:27;;;;;;;15.53;4.80;;;14.60;51.20;;;;;;5021422;28;20462;-57
2023/06/13 04:45:03;;;;;;;8.03;4.80;;;14.70;51.00;;;;;;5013853;28;21171;-57
2023/06/13 04:47:33;;;;;;;8.10;5.33;;;14.70;50.90;;;;;;5021243;28;20521;-57
2023/06/13 04:49:59;;;;;;;7.00;4.80;;;14.80;50.90;;;;;;5016755;28;20502;-57
2023/06/13 04:52:32;;;;;;;7.53;4.80;;;14.80;50.60;;;;;;5013134;28;20458;-57
2023/06/13 04:55:04;;;;;;;8.47;4.70;;;14.90;50.50;;;;;;5017450;28;20453;-58
2023/06/13 04:57:31;;;;;;;8.67;4.90;;;14.90;50.40;;;;;;5009505;28;20445;-54
2023/06/13 04:59:58;;;;;;;8.20;4.97;;;15.00;50.20;;;;;;5019468;28;20529;-54
2023/06/13 05:02:25;;;;;;;7.30;4.43;;;15.00;49.90;;;;;;5020141;28;20469;-54
2023/06/13 05:04:50;;;;;;;8.30;4.83;;;15.10;49.80;;;;;;5020773;28;20458;-54
2023/06/13 05:07:17;;;;;;;9.47;4.60;;;15.10;49.60;;;;;;5025314;28;20422;-52
2023/06/13 05:09:43;;;;;;;6.87;4.10;;;15.20;49.40;;;;;;5017661;28;20257;-53
2023/06/13 05:12:10;;;;;;;9.00;4.40;;;15.20;49.20;;;;;;5023265;28;20517;-54
2023/06/13 05:14:37;;;;;;;10.10;4.97;;;15.30;49.20;;;;;;5018742;28;20195;-52
2023/06/13 05:17:05;;;;;;;7.63;4.30;;;15.40;49.30;;;;;;5017298;28;20818;-53
2023/06/13 05:19:31;;;;;;;5.70;4.33;;;15.40;48.90;;;;;;5017269;28;20426;-53
2023/06/13 05:22:00;;;;;;;9.63;4.53;;;15.50;49.00;;;;;;5024395;28;20479;-53
2023/06/13 05:24:25;;;;;;;7.17;4.23;;;15.50;48.90;;;;;;5017330;28;20461;-53
2023/06/13 05:26:51;;;;;;;4.77;3.60;;;15.50;48.50;;;;;;5019515;28;20427;-52
2023/06/13 05:29:17;;;;;;;6.30;4.10;;;15.60;49.00;;;;;;5019946;28;20207;-53
2023/06/13 05:31:42;;;;;;;7.53;4.20;;;15.70;48.30;;;;;;5020233;28;20184;-53
2023/06/13 05:34:08;;;;;;;5.73;3.90;;;15.80;48.20;;;;;;5017607;28;20275;-53
2023/06/13 05:36:33;;;;;;;7.20;4.30;;;15.90;48.00;;;;;;5021387;28;20230;-55
2023/06/13 05:39:00;;;;;;;5.90;4.53;;;15.90;47.80;;;;;;5018143;28;20208;-54
2023/06/13 05:41:26;;;;;;;5.27;4.07;;;16.00;47.60;;;;;;5023640;28;20172;-53
2023/06/13 05:43:51;;;;;;;5.93;4.83;;;16.00;47.70;;;;;;5023420;28;21013;-52
2023/06/13 05:46:17;;;;;;;11.30;4.20;;;16.00;47.70;;;;;;5024341;28;20242;-53
2023/06/13 05:48:43;;;;;;;6.47;4.30;;;16.10;47.50;;;;;;5021437;28;20845;-53
2023/06/13 05:51:09;;;;;;;8.93;4.70;;;16.10;47.40;;;;;;5024790;28;20204;-53
2023/06/13 05:53:35;;;;;;;9.90;4.73;;;16.10;47.30;;;;;;5026153;28;20215;-54
2023/06/13 05:56:00;;;;;;;12.20;4.40;;;16.20;47.40;;;;;;5028574;28;20171;-53
2023/06/13 05:58:26;;;;;;;6.53;4.10;;;16.20;47.30;;;;;;5019412;28;20191;-51
2023/06/13 06:00:52;;;;;;;5.30;3.60;;;16.20;47.10;;;;;;5021540;28;20203;-52
2023/06/13 06:03:18;;;;;;;8.33;4.17;;;16.30;47.10;;;;;;5025031;28;20207;-54
2023/06/13 06:05:44;;;;;;;9.60;4.60;;;16.30;47.10;;;;;;5025931;28;20180;-53
2023/06/13 06:08:10;;;;;;;6.93;4.00;;;16.40;47.10;;;;;;5026692;28;21040;-54
2023/06/13 06:10:35;;;;;;;9.87;4.47;;;16.40;47.00;;;;;;5021377;28;20188;-54
2023/06/13 06:13:01;;;;;;;6.40;4.07;;;16.50;47.10;;;;;;5018635;28;20263;-53
2023/06/13 06:15:26;;;;;;;10.97;4.50;;;16.50;47.00;;;;;;5027789;28;20233;-53
2023/06/13 06:17:52;;;;;;;6.20;4.47;;;16.60;47.00;;;;;;5021571;28;20187;-53
2023/06/13 06:20:18;;;;;;;6.47;3.93;;;16.70;47.20;;;;;;5020484;28;20171;-52
2023/06/13 06:22:43;;;;;;;8.30;4.27;;;16.80;46.90;;;;;;5024905;28;20219;-54
2023/06/13 06:25:12;;;;;;;7.53;4.47;;;16.90;46.80;;;;;;5022678;28;20208;-52
2023/06/13 06:27:39;;;;;;;6.10;4.60;;;17.00;46.40;;;;;;5024673;28;20184;-53
2023/06/13 06:30:05;;;;;;;9.53;4.27;;;17.10;46.30;;;;;;5025247;28;20466;-54
2023/06/13 06:32:31;;;;;;;5.90;3.50;;;17.20;45.80;;;;;;5023192;28;20430;-53
2023/06/13 06:34:56;;;;;;;7.87;3.83;;;17.30;45.90;;;;;;5020315;28;20447;-54
2023/06/13 06:37:22;;;;;;;7.30;4.03;;;17.30;45.90;;;;;;5024950;28;20249;-53
2023/06/13 06:39:49;;;;;;;6.43;4.17;;;17.30;45.70;;;;;;5025422;28;20271;-53
2023/06/13 06:42:14;;;;;;;28.43;4.00;;;17.40;45.30;;;;;;5023413;28;20521;-54
2023/06/13 06:44:40;;;;;;;4.80;3.37;;;17.50;45.30;;;;;;5023220;28;20203;-54
2023/06/13 06:47:06;;;;;;;6.93;4.00;;;17.50;45.20;;;;;;5013431;28;20180;-54
2023/06/13 06:49:31;;;;;;;4.83;3.90;;;17.60;44.90;;;;;;5018335;28;20660;-52
2023/06/13 06:51:57;;;;;;;10.73;4.70;;;17.60;44.80;;;;;;5021929;28;20556;-54
2023/06/13 06:54:22;;;;;;;4.10;3.70;;;17.70;45.00;;;;;;5026116;28;20195;-53
2023/06/13 06:56:48;;;;;;;16.17;4.63;;;17.70;44.80;;;;;;5014831;28;20180;-51
2023/06/13 06:59:14;;;;;;;8.33;4.07;;;17.80;44.50;;;;;;5016991;28;20192;-52
2023/06/13 07:01:40;;;;;;;7.13;4.10;;;17.90;44.30;;;;;;5014697;28;20457;-53
2023/06/13 07:04:05;;;;;;;9.90;4.10;;;18.00;44.10;;;;;;5017920;28;20576;-54
2023/06/13 07:06:31;;;;;;;9.40;4.20;;;18.10;44.10;;;;;;5022226;28;20740;-51
2023/06/13 07:08:57;;;;;;;8.17;4.17;;;18.10;44.00;;;;;;5022419;28;20294;-53
2023/06/13 07:11:22;;;;;;;10.43;3.50;;;18.30;43.60;;;;;;5023253;28;20690;-52
2023/06/13 07:13:48;;;;;;;6.93;4.13;;;18.30;43.60;;;;;;5019488;28;20308;-53
2023/06/13 07:16:13;;;;;;;5.30;3.80;;;18.40;43.60;;;;;;5018156;28;20207;-54
2023/06/13 07:18:39;;;;;;;6.73;4.00;;;18.40;43.40;;;;;;5022304;28;20196;-54
2023/06/13 07:21:05;;;;;;;8.57;4.37;;;18.40;43.30;;;;;;5017330;28;20187;-53
2023/06/13 07:23:30;;;;;;;12.30;4.20;;;18.50;43.10;;;;;;5019068;28;21013;-52
2023/06/13 07:25:56;;;;;;;6.70;3.30;;;18.50;43.00;;;;;;5019242;28;20263;-53
2023/06/13 07:28:22;;;;;;;5.80;4.20;;;18.60;42.70;;;;;;5017128;28;20319;-54
2023/06/13 07:30:47;;;;;;;6.40;4.00;;;18.60;42.60;;;;;;5016639;28;20203;-53
2023/06/13 07:33:13;;;;;;;10.27;4.03;;;18.70;42.60;;;;;;5022845;28;20200;-53
2023/06/13 07:35:39;;;;;;;5.83;4.27;;;18.80;42.60;;;;;;5011918;28;20329;-52
2023/06/13 07:38:05;;;;;;;10.87;4.23;;;18.90;42.70;;;;;;5014392;28;20199;-55
2023/06/13 07:40:31;;;;;;;3.60;3.13;;;18.90;42.60;;;;;;5015306;28;20431;-54
2023/06/13 07:42:56;;;;;;;9.63;3.60;;;19.00;42.70;;;;;;5023635;28;20978;-53
2023/06/13 07:45:22;;;;;;;4.77;3.43;;;19.10;42.50;;;;;;5015169;28;20180;-53
2023/06/13 07:47:47;;;;;;;6.00;4.20;;;19.10;42.30;;;;;;5018997;28;20178;-52
2023/06/13 07:50:13;;;;;;;8.97;4.73;;;19.20;42.10;;;;;;5021479;28;20323;-54
2023/06/13 07:52:40;;;;;;;4.63;3.73;;;19.30;42.00;;;;;;5016003;28;20287;-54
2023/06/13 07:55:06;;;;;;;8.50;3.97;;;19.40;41.70;;;;;;5017842;28;20215;-53
2023/06/13 07:57:31;;;;;;;7.30;4.30;;;19.40;41.30;;;;;;5023852;28;20466;-54
2023/06/13 07:59:57;;;;;;;5.53;3.40;;;19.40;40.70;;;;;;5019075;28;20521;-55
2023/06/13 08:02:23;;;;;;;7.47;4.63;;;19.50;40.10;;;;;;5014994;28;20678;-54
2023/06/13 08:04:49;;;;;;;6.40;4.37;;;19.60;39.80;;;;;;5021163;28;20215;-54
2023/06/13 08:07:15;;;;;;;7.00;3.77;;;19.60;39.70;;;;;;5013044;28;20434;-54
2023/06/13 08:09:40;;;;;;;6.47;3.73;;;19.70;39.40;;;;;;5023858;28;20203;-54
2023/06/13 08:12:07;;;;;;;5.63;4.00;;;19.80;39.70;;;;;;5019607;28;20658;-52
2023/06/13 08:14:32;;;;;;;6.30;3.90;;;19.90;39.60;;;;;;5017213;28;20202;-55
2023/06/13 08:16:58;;;;;;;18.47;4.03;;;20.00;39.50;;;;;;5014978;28;20427;-54
2023/06/13 08:19:23;;;;;;;6.83;4.00;;;20.00;39.50;;;;;;5009221;28;20254;-54
2023/06/13 08:21:49;;;;;;;12.23;4.40;;;20.00;40.00;;;;;;5012249;28;20180;-52
2023/06/13 08:24:15;;;;;;;5.77;3.90;;;20.00;40.30;;;;;;5023441;28;20676;-53
2023/06/13 08:26:40;;;;;;;5.67;4.20;;;20.10;40.70;;;;;;5019789;28;20191;-56
2023/06/13 08:29:06;;;;;;;14.77;4.30;;;20.10;40.30;;;;;;5010479;28;20197;-52
2023/06/13 08:31:32;;;;;;;8.00;4.27;;;20.20;40.10;;;;;;5022563;28;20226;-53
2023/06/13 08:34:02;;;;;;;11.47;4.53;;;20.20;40.30;;;;;;5012411;28;20587;-54
2023/06/13 08:36:28;;;;;;;8.63;4.50;;;20.30;40.30;;;;;;5019316;28;20437;-53
2023/06/13 08:38:57;;;;;;;18.97;4.73;;;20.30;40.20;;;;;;5015352;28;20957;-53
2023/06/13 08:41:24;;;;;;;8.03;4.27;;;20.30;40.50;;;;;;5015557;28;20208;-53
2023/06/13 08:43:51;;;;;;;13.23;4.70;;;20.40;40.40;;;;;;5015314;28;20484;-53
2023/06/13 08:46:16;;;;;;;9.70;4.70;;;20.40;40.60;;;;;;5009208;28;20481;-53
2023/06/13 08:48:42;;;;;;;7.90;4.07;;;20.50;40.60;;;;;;5018494;28;20504;-53
2023/06/13 08:51:13;;;;;;;9.57;4.00;;;20.60;39.50;;;;;;5016316;28;20180;-52
2023/06/13 08:53:47;;;;;;;9.40;3.53;;;20.70;38.80;;;;;;5014885;28;20192;-54
2023/06/13 08:56:13;;;;;;;7.30;4.10;;;20.70;39.00;;;;;;5020199;28;21110;-53
2023/06/13 08:58:41;;;;;;;9.10;3.87;;;20.80;39.90;;;;;;5009333;28;20445;-54
2023/06/13 09:01:07;;;;;;;7.13;3.93;;;20.80;39.20;;;;;;5013691;28;20184;-53
2023/06/13 09:03:35;;;;;;;6.90;3.97;;;20.90;39.20;;;;;;5013495;28;20542;-52
2023/06/13 09:06:04;;;;;;;8.07;4.27;;;20.90;40.00;;;;;;5016391;28;20179;-53
2023/06/13 09:08:31;;;;;;;9.90;4.20;;;21.00;40.70;;;;;;5013214;28;20481;-54
2023/06/13 09:10:59;;;;;;;7.23;4.80;;;21.10;39.90;;;;;;5016090;28;20431;-54
2023/06/13 09:13:27;;;;;;;7.83;4.13;;;21.20;39.50;;;;;;5017200;28;21177;-53
2023/06/13 09:15:53;;;;;;;9.57;4.60;;;21.20;39.40;;;;;;5016699;28;20548;-53
2023/06/13 09:18:19;;;;;;;6.27;4.20;;;21.30;40.00;;;;;;5007656;28;20434;-53
2023/06/13 09:20:45;;;;;;;11.77;3.80;;;21.40;39.20;;;;;;5017915;28;20402;-53
2023/06/13 09:23:15;;;;;;;6.90;4.30;;;21.50;39.10;;;;;;5017525;28;21104;-54
2023/06/13 09:25:44;;;;;;;7.40;4.70;;;21.60;39.30;;;;;;5009434;28;20180;-53
2023/06/13 09:28:29;;;;;;;6.70;4.00;;;21.70;39.60;;;;;;5017292;28;20930;-53
2023/06/13 09:30:56;;;;;;;6.40;4.77;;;21.80;38.90;;;;;;5022571;28;20430;-53
2023/06/13 09:33:23;;;;;;;8.73;4.80;;;21.80;38.50;;;;;;5016559;28;20450;-54
2023/06/13 09:35:50;;;;;;;10.17;4.17;;;21.90;39.10;;;;;;5017624;28;21029;-54
2023/06/13 09:38:21;;;;;;;10.60;4.00;;;22.00;39.20;;;;;;5022670;28;20476;-54
2023/06/13 09:40:47;;;;;;;6.90;4.47;;;22.10;39.00;;;;;;5014697;28;20472;-54
2023/06/13 09:43:16;;;;;;;5.23;4.00;;;22.10;38.90;;;;;;5021243;28;20429;-53
2023/06/13 09:45:47;;;;;;;5.57;3.70;;;22.20;39.00;;;;;;5019493;28;20439;-54
2023/06/13 09:48:12;;;;;;;10.23;3.67;;;22.30;39.20;;;;;;5019968;28;20465;-53
2023/06/13 09:50:40;;;;;;;6.50;4.63;;;22.50;37.40;;;;;;5013948;28;20439;-54
2023/06/13 09:53:07;;;;;;;6.67;3.80;;;22.60;37.30;;;;;;5020319;28;20187;-53
2023/06/13 09:55:33;;;;;;;4.80;3.87;;;22.70;37.80;;;;;;5017942;28;20431;-53
2023/06/13 09:57:59;;;;;;;5.03;3.90;;;22.80;37.10;;;;;;5021382;28;20510;-53
2023/06/13 10:00:24;;;;;;;7.80;3.70;;;22.90;36.20;;;;;;5013265;28;21039;-53
2023/06/13 10:02:50;;;;;;;7.47;4.13;;;22.90;35.50;;;;;;5018026;28;20172;-54
2023/06/13 10:05:16;;;;;;;8.70;4.03;;;23.00;34.60;;;;;;5011321;28;20214;-53
2023/06/13 10:07:41;;;;;;;5.60;3.50;;;23.10;34.60;;;;;;5020397;28;20184;-54
2023/06/13 10:10:07;;;;;;;4.87;3.53;;;23.10;34.10;;;;;;5021792;28;20212;-54
2023/06/13 10:12:38;;;;;;;4.70;3.80;;;23.20;34.40;;;;;;5019137;28;20172;-53
2023/06/13 10:15:07;;;;;;;5.73;3.97;;;23.30;33.90;;;;;;5015377;28;20985;-52
2023/06/13 10:17:40;;;;;;;5.20;3.60;;;23.40;34.00;;;;;;5014290;28;20434;-56
2023/06/13 10:20:10;;;;;;;4.40;3.73;;;23.40;33.30;;;;;;5014699;28;20426;-56
2023/06/13 10:22:38;;;;;;;8.53;4.20;;;23.40;32.20;;;;;;5017191;28;20580;-57
2023/06/13 10:25:06;;;;;;;6.37;4.20;;;23.50;32.30;;;;;;5023002;28;20458;-56
2023/06/13 10:27:35;;;;;;;7.50;3.40;;;23.50;32.50;;;;;;5021843;28;20515;-56
2023/06/13 10:30:38;;;;;;;5.93;3.90;;;23.60;32.80;;;;;;5025604;28;20826;-59
2023/06/13 10:33:16;;;;;;;5.03;3.83;;;23.70;31.70;;;;;;5025774;28;20495;-56
2023/06/13 10:35:53;;;;;;;5.57;4.03;;;23.70;31.90;;;;;;5019813;28;20427;-57
2023/06/13 10:38:47;;;;;;;6.30;3.43;;;23.80;31.90;;;;;;5020279;28;20438;-57
2023/06/13 10:41:19;;;;;;;5.93;4.30;;;23.80;32.10;;;;;;5018410;28;20430;-58
2023/06/13 10:44:07;;;;;;;8.43;3.97;;;23.90;31.20;;;;;;5025721;28;20459;-57
2023/06/13 10:46:34;;;;;;;15.03;4.83;;;24.10;31.20;;;;;;5020844;28;20431;-55
2023/06/13 10:49:00;;;;;;;6.87;4.03;;;24.20;30.40;;;;;;5018232;28;20504;-58
2023/06/13 10:51:29;;;;;;;28.67;5.33;;;24.30;29.60;;;;;;5019086;28;20422;-58
2023/06/13 10:54:03;;;;;;;7.93;4.37;;;24.40;29.30;;;;;;5017524;28;20196;-57
2023/06/13 10:56:31;;;;;;;7.07;4.00;;;24.50;29.90;;;;;;5011419;28;20546;-58
2023/06/13 10:59:04;;;;;;;9.93;4.10;;;24.70;30.10;;;;;;5014915;28;20434;-58
2023/06/13 11:01:30;;;;;;;7.50;3.60;;;24.80;30.00;;;;;;5013900;28;20434;-60
2023/06/13 11:04:14;;;;;;;5.30;3.93;;;24.90;29.10;;;;;;5019482;28;20520;-57
2023/06/13 11:06:42;;;;;;;8.07;3.63;;;24.90;29.50;;;;;;5023440;28;20430;-56
2023/06/13 11:09:25;;;;;;;7.67;4.20;;;25.00;28.80;;;;;;5017853;28;20485;-57
2023/06/13 11:11:58;;;;;;;5.57;3.47;;;24.90;28.40;;;;;;5020904;28;20438;-57
2023/06/13 11:14:37;;;;;;;6.50;4.00;;;25.00;28.30;;;;;;5020634;28;20457;-56
2023/06/13 11:17:03;;;;;;;5.73;3.77;;;25.00;28.60;;;;;;5010848;28;20433;-56
2023/06/13 11:19:33;;;;;;;6.40;4.30;;;25.00;28.30;;;;;;5014538;28;20503;-56
2023/06/13 11:22:02;;;;;;;6.43;3.50;;;25.10;28.50;;;;;;5022236;28;20461;-57
2023/06/13 11:24:29;;;;;;;5.40;3.80;;;25.10;28.60;;;;;;5014187;28;20450;-55
2023/06/13 11:26:56;;;;;;;12.30;3.93;;;25.20;28.60;;;;;;5022344;28;21329;-57
2023/06/13 11:29:22;;;;;;;5.43;3.67;;;25.30;28.90;;;;;;5011739;28;20473;-59
2023/06/13 11:31:52;;;;;;;4.67;3.97;;;25.40;28.50;;;;;;5012383;28;20827;-54
2023/06/13 11:34:23;;;;;;;7.00;3.90;;;25.60;28.20;;;;;;5014425;28;20675;-54
2023/06/13 11:36:54;;;;;;;8.70;4.40;;;25.60;27.90;;;;;;5017142;28;20453;-54
2023/06/13 11:39:25;;;;;;;5.50;3.63;;;25.70;29.00;;;;;;5022003;28;20449;-58
2023/06/13 11:41:51;;;;;;;11.87;4.30;;;25.90;28.40;;;;;;5018331;28;21139;-57
2023/06/13 11:44:18;;;;;;;4.43;3.93;;;26.00;27.80;;;;;;5021870;28;20454;-56
2023/06/13 11:46:44;;;;;;;5.90;4.33;;;26.10;27.00;;;;;;5024936;28;21044;-56
2023/06/13 11:49:14;;;;;;;4.70;3.50;;;26.10;27.10;;;;;;5025295;28;20460;-56
2023/06/13 11:51:41;;;;;;;8.70;4.23;;;26.20;27.90;;;;;;5022898;28;20222;-57
2023/06/13 11:54:08;;;;;;;7.13;3.60;;;26.30;28.10;;;;;;5011849;28;20454;-58
2023/06/13 11:56:40;;;;;;;7.13;3.80;;;26.40;27.50;;;;;;5020919;28;20424;-56
2023/06/13 11:59:23;;;;;;;9.23;4.27;;;26.50;27.30;;;;;;5018762;28;20442;-56
2023/06/13 12:01:53;;;;;;;5.60;3.90;;;26.70;27.00;;;;;;5018468;28;20913;-56
2023/06/13 12:04:23;;;;;;;5.63;4.57;;;26.80;27.00;;;;;;5015428;28;21162;-57
2023/06/13 12:06:50;;;;;;;6.67;3.57;;;26.90;28.20;;;;;;5018038;28;20461;-56
2023/06/13 12:09:16;;;;;;;10.17;4.00;;;27.10;27.40;;;;;;5007668;28;20550;-56
2023/06/13 12:11:43;;;;;;;6.27;3.90;;;27.20;26.40;;;;;;5018994;28;20429;-57
2023/06/13 12:14:09;;;;;;;5.20;3.60;;;27.30;26.20;;;;;;5017122;28;20759;-58
2023/06/13 12:16:36;;;;;;;5.67;4.10;;;27.40;25.10;;;;;;5014296;28;20188;-56
2023/06/13 12:19:09;;;;;;;7.67;3.40;;;27.40;24.50;;;;;;5011150;28;20180;-56
2023/06/13 12:21:36;;;;;;;9.90;3.60;;;27.50;25.60;;;;;;5022532;28;20533;-58
2023/06/13 12:24:07;;;;;;;8.93;3.70;;;27.60;25.70;;;;;;5019998;28;20460;-56
2023/06/13 12:26:34;;;;;;;6.40;3.90;;;27.60;26.00;;;;;;5020541;28;20171;-55
2023/06/13 12:29:03;;;;;;;6.73;4.03;;;27.70;25.80;;;;;;5018439;28;20694;-56
2023/06/13 12:31:36;;;;;;;5.17;3.50;;;27.80;25.10;;;;;;5018533;28;20253;-58
2023/06/13 12:34:16;;;;;;;5.13;3.90;;;27.90;23.60;;;;;;5021049;28;20195;-55
2023/06/13 12:36:44;;;;;;;14.70;4.70;;;28.00;24.10;;;;;;5023303;28;20755;-57
2023/06/13 12:39:18;;;;;;;7.00;3.83;;;28.20;23.80;;;;;;5014573;28;20636;-57
2023/06/13 12:41:52;;;;;;;6.60;4.03;;;28.30;23.30;;;;;;5000228;28;20237;-58
2023/06/13 12:44:21;;;;;;;7.97;3.73;;;28.40;23.70;;;;;;5019218;28;20706;-56
2023/06/13 12:46:49;;;;;;;6.93;3.60;;;28.50;23.50;;;;;;5018094;28;20191;-56
2023/06/13 12:49:19;;;;;;;9.30;3.83;;;28.50;22.70;;;;;;5017860;28;20195;-53